createdAt,value
2018-09-28T00:01:23.370Z,86.80
2018-09-28T00:03:58.379Z,86.30
2018-09-28T00:06:32.702Z,86.50
2018-09-28T00:09:09.243Z,86.50
2018-09-28T00:11:43.583Z,86.80
2018-09-28T00:14:18.786Z,87.10
2018-09-28T00:16:53.189Z,87.20
2018-09-28T00:19:28.214Z,87.30
2018-09-28T00:22:02.680Z,87.40
2018-09-28T00:24:37.654Z,87.60
2018-09-28T00:27:11.976Z,87.80
2018-09-28T00:29:47.056Z,87.90
2018-09-28T00:32:22.455Z,88.30
2018-09-28T00:34:56.849Z,88.70
2018-09-28T00:37:31.501Z,89.00
2018-09-28T00:40:06.768Z,89.20
2018-09-28T00:42:41.972Z,89.10
2018-09-28T00:45:17.151Z,89.50
2018-09-28T00:47:51.463Z,89.60
2018-09-28T00:50:26.392Z,89.80
2018-09-28T00:53:02.130Z,90.00
2018-09-28T00:55:36.620Z,90.10
2018-09-28T00:58:11.523Z,90.20
2018-09-28T01:03:26.687Z,90.60
2018-09-28T01:06:01.127Z,90.60
2018-09-28T01:08:35.567Z,90.60
2018-09-28T01:11:09.851Z,90.60
2018-09-28T01:13:44.734Z,90.60
2018-09-28T01:16:19.109Z,90.60
2018-09-28T01:18:53.539Z,90.80
2018-09-28T01:21:35.802Z,90.80
2018-09-28T01:24:10.660Z,90.90
2018-09-28T01:26:45.003Z,90.90
2018-09-28T01:29:19.931Z,90.90
2018-09-28T01:31:54.767Z,91.00
2018-09-28T01:34:29.392Z,90.90
2018-09-28T01:37:03.906Z,91.00
2018-09-28T01:39:39.227Z,91.10
2018-09-28T01:42:14.772Z,91.10
2018-09-28T01:44:50.211Z,91.20
2018-09-28T01:47:25.784Z,91.30
2018-09-28T01:50:01.317Z,91.20
2018-09-28T01:52:42.211Z,91.10
2018-09-28T01:55:16.555Z,91.20
2018-09-28T01:57:52.069Z,91.40
2018-09-28T02:00:26.372Z,91.30
2018-09-28T02:03:01.824Z,91.30
2018-09-28T02:05:36.350Z,91.40
2018-09-28T02:08:10.712Z,91.50
2018-09-28T02:10:45.103Z,91.40
2018-09-28T02:13:20.482Z,91.40
2018-09-28T02:15:55.113Z,91.40
2018-09-28T02:18:30.303Z,91.60
2018-09-28T02:21:05.435Z,91.60
2018-09-28T02:23:39.828Z,91.60
2018-09-28T02:26:14.408Z,91.50
2018-09-28T02:28:49.640Z,91.50
2018-09-28T02:31:25.056Z,91.70
2018-09-28T02:34:00.473Z,91.70
2018-09-28T02:39:16.384Z,91.90
2018-09-28T02:41:50.836Z,92.00
2018-09-28T02:44:26.195Z,92.10
2018-09-28T02:47:00.719Z,92.10
2018-09-28T02:49:35.940Z,92.00
2018-09-28T02:52:10.610Z,92.00
2018-09-28T02:54:46.001Z,92.00
2018-09-28T02:57:21.399Z,92.10
2018-09-28T02:59:55.952Z,92.00
2018-09-28T03:02:31.319Z,92.10
2018-09-28T03:05:05.771Z,92.10
2018-09-28T03:07:40.184Z,92.20
2018-09-28T03:10:15.504Z,92.10
2018-09-28T03:12:51.159Z,92.10
2018-09-28T03:15:25.692Z,92.20
2018-09-28T03:18:01.224Z,92.30
2018-09-28T03:20:35.758Z,92.40
2018-09-28T03:23:10.673Z,92.50
2018-09-28T03:25:45.424Z,92.60
2018-09-28T03:28:21.164Z,92.70
2018-09-28T03:30:56.727Z,92.80
2018-09-28T03:33:32.143Z,92.90
2018-09-28T03:36:07.213Z,93.00
2018-09-28T03:38:42.988Z,93.10
2018-09-28T03:41:17.472Z,93.10
2018-09-28T03:43:52.371Z,93.00
2018-09-28T03:46:27.281Z,93.00
2018-09-28T03:49:02.779Z,93.00
2018-09-28T03:51:37.090Z,93.10
2018-09-28T03:54:12.758Z,93.20
2018-09-28T03:56:47.292Z,93.10
2018-09-28T03:59:22.407Z,93.00
2018-09-28T04:01:57.860Z,93.10
2018-09-28T04:04:32.263Z,93.10
2018-09-28T04:07:06.807Z,93.10
2018-09-28T04:09:41.126Z,93.20
2018-09-28T04:12:16.609Z,93.30
2018-09-28T04:14:50.948Z,93.30
2018-09-28T04:17:25.568Z,93.40
2018-09-28T04:20:00.708Z,93.40
2018-09-28T04:22:35.224Z,93.50
2018-09-28T04:25:09.547Z,93.50
2018-09-28T04:27:43.894Z,93.50
2018-09-28T04:33:05.359Z,93.50
2018-09-28T04:35:39.917Z,93.30
2018-09-28T04:38:14.286Z,93.30
2018-09-28T04:40:49.542Z,93.30
2018-09-28T04:43:24.579Z,93.30
2018-09-28T04:45:59.596Z,93.30
2018-09-28T04:48:40.072Z,93.30
2018-09-28T04:51:14.526Z,93.30
2018-09-28T04:53:49.766Z,93.40
2018-09-28T04:56:24.109Z,93.50
2018-09-28T04:58:59.226Z,93.40
2018-09-28T05:01:34.176Z,93.50
2018-09-28T05:04:08.561Z,93.80
2018-09-28T05:06:43.044Z,93.50
2018-09-28T05:09:17.465Z,93.60
2018-09-28T05:11:52.437Z,93.60
2018-09-28T05:14:27.498Z,93.50
2018-09-28T05:17:02.071Z,93.40
2018-09-28T05:19:37.154Z,93.40
2018-09-28T05:22:11.678Z,93.40
2018-09-28T05:24:45.966Z,93.50
2018-09-28T05:27:20.926Z,93.70
2018-09-28T05:29:56.335Z,93.80
2018-09-28T05:32:31.768Z,93.80
2018-09-28T05:35:06.145Z,93.80
2018-09-28T05:37:41.341Z,93.90
2018-09-28T05:40:16.388Z,93.80
2018-09-28T05:42:51.106Z,93.80
2018-09-28T05:45:26.159Z,93.70
2018-09-28T05:48:00.695Z,93.60
2018-09-28T05:50:35.860Z,93.60
2018-09-28T05:55:51.769Z,93.80
2018-09-28T05:58:32.204Z,93.80
2018-09-28T06:03:58.952Z,94.00
2018-09-28T06:06:33.251Z,93.80
2018-09-28T06:09:09.211Z,93.50
2018-09-28T06:11:44.563Z,93.60
2018-09-28T06:14:19.727Z,93.30
2018-09-28T06:16:54.060Z,93.40
2018-09-28T06:19:29.379Z,93.30
2018-09-28T06:22:03.720Z,93.00
2018-09-28T06:24:38.223Z,92.70
2018-09-28T06:27:15.221Z,92.30
2018-09-28T06:29:50.740Z,92.10
2018-09-28T06:32:25.875Z,91.80
2018-09-28T06:35:01.004Z,91.70
2018-09-28T06:37:35.712Z,91.40
2018-09-28T06:40:10.683Z,91.50
2018-09-28T06:42:44.991Z,91.30
2018-09-28T06:45:20.143Z,91.00
2018-09-28T06:47:55.322Z,91.00
2018-09-28T06:50:31.654Z,90.70
2018-09-28T06:53:06.851Z,90.50
2018-09-28T06:55:41.915Z,90.30
2018-09-28T06:58:17.166Z,89.90
2018-09-28T07:00:59.116Z,89.40
2018-09-28T07:03:34.177Z,88.40
2018-09-28T07:06:08.703Z,87.60
2018-09-28T07:08:43.127Z,86.60
2018-09-28T07:11:17.742Z,86.10
2018-09-28T07:13:52.856Z,85.20
2018-09-28T07:16:28.282Z,83.80
2018-09-28T07:19:03.416Z,82.70
2018-09-28T07:21:37.991Z,82.50
2018-09-28T07:24:12.378Z,81.40
2018-09-28T07:26:47.472Z,80.90
2018-09-28T07:29:22.831Z,80.00
2018-09-28T07:31:58.033Z,79.10
2018-09-28T07:34:32.442Z,78.20
2018-09-28T07:37:06.990Z,77.20
2018-09-28T07:39:42.142Z,76.90
2018-09-28T07:42:16.600Z,76.70
2018-09-28T07:44:51.791Z,75.40
2018-09-28T07:47:26.201Z,74.40
2018-09-28T07:50:01.559Z,73.90
2018-09-28T07:52:37.006Z,73.50
2018-09-28T07:55:12.554Z,72.60
2018-09-28T07:57:47.895Z,70.90
2018-09-28T08:00:22.432Z,70.50
2018-09-28T08:02:57.779Z,69.90
2018-09-28T08:05:32.848Z,69.00
2018-09-28T08:08:07.321Z,68.10
2018-09-28T08:10:41.780Z,68.30
2018-09-28T08:13:16.983Z,68.30
2018-09-28T08:15:51.710Z,68.30
2018-09-28T08:18:27.003Z,67.10
2018-09-28T08:21:01.587Z,67.10
2018-09-28T08:23:36.919Z,67.10
2018-09-28T08:26:11.435Z,68.00
2018-09-28T08:28:46.576Z,67.00
2018-09-28T08:31:22.032Z,66.40
2018-09-28T08:33:56.860Z,65.20
2018-09-28T08:36:31.284Z,64.20
2018-09-28T08:39:08.204Z,64.00
2018-09-28T08:41:42.748Z,64.20
2018-09-28T08:44:17.927Z,63.40
2018-09-28T08:46:52.206Z,62.40
2018-09-28T08:49:27.712Z,61.60
2018-09-28T08:52:03.660Z,61.80
2018-09-28T08:54:38.957Z,62.00
2018-09-28T08:57:18.012Z,61.80
2018-09-28T08:59:52.252Z,61.20
2018-09-28T09:02:26.522Z,60.50
2018-09-28T09:05:00.962Z,60.50
2018-09-28T09:07:35.256Z,59.80
2018-09-28T09:10:09.908Z,59.30
2018-09-28T09:12:45.775Z,59.60
2018-09-28T09:15:20.229Z,59.50
2018-09-28T09:18:01.066Z,59.20
2018-09-28T09:20:36.315Z,59.40
2018-09-28T09:23:10.795Z,59.50
2018-09-28T09:25:45.192Z,59.20
2018-09-28T09:28:20.051Z,59.40
2018-09-28T09:30:55.524Z,59.20
2018-09-28T09:33:30.082Z,59.40
2018-09-28T09:36:04.555Z,60.70
2018-09-28T09:38:38.988Z,61.60
2018-09-28T09:41:14.206Z,61.40
2018-09-28T09:43:49.236Z,61.10
2018-09-28T09:46:24.854Z,60.90
2018-09-28T09:49:00.144Z,61.30
2018-09-28T09:51:35.609Z,61.30
2018-09-28T09:54:10.694Z,60.90
2018-09-28T09:56:45.169Z,60.50
2018-09-28T09:59:20.229Z,60.40
2018-09-28T10:02:00.369Z,60.30
2018-09-28T10:04:34.876Z,60.20
2018-09-28T10:07:09.180Z,59.20
2018-09-28T10:09:43.473Z,59.10
2018-09-28T10:12:18.706Z,59.00
2018-09-28T10:14:53.162Z,59.30
2018-09-28T10:17:28.020Z,59.20
2018-09-28T10:20:03.236Z,59.10
2018-09-28T10:22:37.699Z,59.20
2018-09-28T10:25:13.120Z,59.00
2018-09-28T10:27:47.470Z,58.80
2018-09-28T10:30:22.843Z,60.00
2018-09-28T10:32:58.028Z,59.30
2018-09-28T10:35:32.655Z,58.90
2018-09-28T10:38:06.997Z,58.90
2018-09-28T10:40:42.162Z,58.70
2018-09-28T10:43:16.514Z,58.70
2018-09-28T10:45:51.821Z,58.20
2018-09-28T10:48:26.820Z,57.60
2018-09-28T10:51:02.000Z,58.40
2018-09-28T10:53:36.900Z,60.00
2018-09-28T10:56:11.856Z,62.00
2018-09-28T10:58:47.408Z,61.90
2018-09-28T11:01:21.771Z,60.20
2018-09-28T11:03:56.240Z,59.30
2018-09-28T11:06:30.736Z,58.60
2018-09-28T11:09:08.299Z,57.20
2018-09-28T11:11:42.936Z,54.80
2018-09-28T11:14:17.907Z,52.60
2018-09-28T11:16:53.157Z,52.70
2018-09-28T11:19:28.303Z,54.60
2018-09-28T11:22:03.540Z,56.10
2018-09-28T11:24:38.434Z,55.50
2018-09-28T11:27:13.411Z,54.60
2018-09-28T11:29:48.924Z,53.00
2018-09-28T11:32:23.793Z,52.20
2018-09-28T11:34:58.224Z,53.10
2018-09-28T11:37:32.706Z,52.70
2018-09-28T11:40:07.880Z,52.60
2018-09-28T11:42:42.383Z,51.50
2018-09-28T11:45:17.239Z,50.60
2018-09-28T11:47:51.625Z,49.70
2018-09-28T11:50:26.716Z,48.80
2018-09-28T11:53:01.740Z,47.90
2018-09-28T11:55:36.811Z,47.20
2018-09-28T11:58:11.983Z,47.90
2018-09-28T12:00:47.807Z,50.70
2018-09-28T12:03:22.435Z,51.20
2018-09-28T12:05:56.924Z,50.90
2018-09-28T12:08:31.408Z,50.70
2018-09-28T12:11:06.842Z,49.70
2018-09-28T12:13:41.936Z,49.60
2018-09-28T12:16:16.308Z,51.90
2018-09-28T12:18:51.826Z,55.60
2018-09-28T12:21:27.082Z,53.10
2018-09-28T12:24:01.581Z,53.30
2018-09-28T12:26:36.790Z,50.90
2018-09-28T12:29:12.189Z,49.60
2018-09-28T12:31:47.735Z,49.80
2018-09-28T12:34:22.359Z,50.10
2018-09-28T12:36:56.895Z,52.20
2018-09-28T12:39:32.028Z,49.80
2018-09-28T12:42:06.641Z,49.20
2018-09-28T12:44:42.015Z,49.30
2018-09-28T12:47:16.507Z,50.30
2018-09-28T12:49:51.609Z,48.20
2018-09-28T12:52:26.878Z,48.30
2018-09-28T12:55:02.132Z,49.60
2018-09-28T12:57:37.368Z,47.40
2018-09-28T13:00:12.898Z,46.90
2018-09-28T13:02:47.520Z,48.10
2018-09-28T13:05:21.979Z,46.00
2018-09-28T13:07:56.329Z,46.20
2018-09-28T13:10:35.049Z,46.60
2018-09-28T13:13:10.121Z,45.90
2018-09-28T13:15:44.559Z,45.90
2018-09-28T13:18:19.928Z,45.50
2018-09-28T13:20:54.958Z,45.30
2018-09-28T13:23:29.572Z,44.30
2018-09-28T13:26:03.831Z,42.10
2018-09-28T13:28:39.232Z,43.50
2018-09-28T13:31:14.678Z,48.80
2018-09-28T13:33:48.984Z,45.00
2018-09-28T13:36:23.773Z,42.90
2018-09-28T13:39:06.383Z,45.30
2018-09-28T13:41:40.620Z,45.20
2018-09-28T13:44:17.217Z,43.20
2018-09-28T13:46:51.556Z,40.90
2018-09-28T13:49:26.899Z,41.80
2018-09-28T13:52:02.090Z,39.90
2018-09-28T13:54:37.816Z,38.40
2018-09-28T13:57:18.885Z,38.50
2018-09-28T13:59:53.766Z,37.80
2018-09-28T14:02:29.008Z,38.60
2018-09-28T14:05:03.504Z,38.70
2018-09-28T14:07:37.904Z,37.30
2018-09-28T14:10:13.452Z,36.60
2018-09-28T14:12:48.773Z,36.20
2018-09-28T14:15:23.722Z,36.30
2018-09-28T14:17:59.188Z,38.10
2018-09-28T14:20:33.656Z,37.50
2018-09-28T14:23:08.044Z,39.20
2018-09-28T14:25:42.468Z,37.20
2018-09-28T14:28:17.588Z,36.80
2018-09-28T14:30:57.804Z,36.80
2018-09-28T14:33:33.900Z,37.10
2018-09-28T14:36:08.259Z,36.50
2018-09-28T14:38:43.399Z,37.60
2018-09-28T14:41:18.347Z,36.20
2018-09-28T14:43:52.676Z,35.50
2018-09-28T14:46:27.605Z,36.10
2018-09-28T14:49:02.901Z,37.50
2018-09-28T14:51:38.312Z,38.00
2018-09-28T14:54:14.054Z,38.20
2018-09-28T14:56:49.111Z,38.80
2018-09-28T14:59:24.128Z,38.30
2018-09-28T15:02:07.085Z,39.90
2018-09-28T15:04:41.832Z,39.40
2018-09-28T15:07:16.803Z,39.70
2018-09-28T15:09:51.363Z,40.40
2018-09-28T15:12:26.548Z,40.70
2018-09-28T15:15:01.537Z,40.60
2018-09-28T15:17:35.968Z,40.80
2018-09-28T15:20:11.010Z,40.60
2018-09-28T15:22:45.510Z,40.30
2018-09-28T15:25:19.922Z,39.40
2018-09-28T15:28:03.217Z,39.10
2018-09-28T15:30:37.730Z,38.70
2018-09-28T15:33:12.582Z,39.30
2018-09-28T15:35:47.029Z,38.80
2018-09-28T15:38:21.495Z,39.10
2018-09-28T15:40:56.500Z,37.80
2018-09-28T15:43:31.791Z,36.70
2018-09-28T15:46:07.484Z,37.50
2018-09-28T15:48:43.230Z,37.90
2018-09-28T15:51:18.167Z,39.20
2018-09-28T15:53:53.507Z,41.00
2018-09-28T15:56:27.926Z,42.10
2018-09-28T15:59:02.988Z,43.10
2018-09-28T16:01:37.339Z,44.20
2018-09-28T16:04:13.038Z,45.10
2018-09-28T16:06:47.879Z,45.70
2018-09-28T16:09:22.713Z,46.30
2018-09-28T16:11:58.191Z,47.30
2018-09-28T16:14:33.347Z,47.80
2018-09-28T16:17:08.618Z,48.80
2018-09-28T16:19:44.267Z,49.60
2018-09-28T16:22:18.907Z,50.40
2018-09-28T16:24:53.435Z,51.00
2018-09-28T16:27:27.829Z,51.50
2018-09-28T16:30:03.383Z,51.80
2018-09-28T16:32:39.047Z,51.90
2018-09-28T16:35:13.660Z,52.00
2018-09-28T16:37:48.054Z,52.20
2018-09-28T16:40:23.244Z,52.20
2018-09-28T16:42:57.544Z,52.60
2018-09-28T16:45:32.994Z,52.40
2018-09-28T16:48:08.468Z,53.20
2018-09-28T16:50:43.639Z,53.60
2018-09-28T16:53:24.563Z,54.30
2018-09-28T16:55:58.879Z,54.60
2018-09-28T16:58:33.981Z,54.90
2018-09-28T17:01:09.289Z,55.20
2018-09-28T17:03:44.904Z,55.50
2018-09-28T17:06:19.839Z,55.70
2018-09-28T17:08:55.569Z,55.60
2018-09-28T17:11:30.199Z,55.80
2018-09-28T17:14:05.276Z,56.00
2018-09-28T17:16:39.887Z,56.20
2018-09-28T17:19:14.752Z,56.30
2018-09-28T17:21:49.332Z,56.50
2018-09-28T17:24:23.854Z,56.80
2018-09-28T17:26:58.567Z,56.80
2018-09-28T17:29:34.063Z,57.10
2018-09-28T17:32:09.882Z,57.70
2018-09-28T17:34:44.192Z,58.30
2018-09-28T17:37:18.754Z,58.40
2018-09-28T17:39:53.793Z,59.10
2018-09-28T17:42:28.360Z,59.00
2018-09-28T17:45:03.832Z,59.10
2018-09-28T17:47:39.787Z,59.50
2018-09-28T17:50:15.356Z,60.20
2018-09-28T17:52:50.433Z,60.70
2018-09-28T17:55:30.184Z,61.00
2018-09-28T17:58:04.852Z,61.50
2018-09-28T18:00:47.475Z,61.90
2018-09-28T18:03:21.851Z,62.20
2018-09-28T18:05:57.667Z,62.30
2018-09-28T18:08:32.214Z,62.30
2018-09-28T18:11:06.988Z,62.60
2018-09-28T18:13:42.197Z,62.80
2018-09-28T18:16:16.626Z,63.30
2018-09-28T18:18:52.099Z,63.60
2018-09-28T18:21:26.632Z,64.00
2018-09-28T18:24:01.219Z,64.20
2018-09-28T18:26:35.847Z,64.50
2018-09-28T18:29:11.143Z,64.40
2018-09-28T18:31:46.263Z,64.40
2018-09-28T18:34:20.814Z,64.80
2018-09-28T18:36:56.130Z,65.70
2018-09-28T18:39:31.623Z,65.70
2018-09-28T18:42:06.353Z,65.70
2018-09-28T18:44:41.980Z,65.70
2018-09-28T18:47:17.136Z,65.70
2018-09-28T18:52:31.166Z,65.50
2018-09-28T18:55:06.701Z,65.40
2018-09-28T18:57:42.351Z,65.50
2018-09-28T19:00:18.082Z,65.60
2018-09-28T19:02:52.667Z,65.70
2018-09-28T19:05:27.876Z,65.50
2018-09-28T19:08:03.282Z,64.90
2018-09-28T19:10:37.672Z,63.80
2018-09-28T19:13:12.959Z,63.50
2018-09-28T19:15:47.544Z,63.80
2018-09-28T19:18:23.392Z,63.70
2018-09-28T19:20:57.728Z,64.10
2018-09-28T19:23:32.522Z,63.40
2018-09-28T19:26:06.932Z,63.10
2018-09-28T19:28:43.492Z,61.40
2018-09-28T19:31:20.070Z,60.40
2018-09-28T19:33:54.742Z,59.00
2018-09-28T19:36:29.278Z,58.50
2018-09-28T19:39:05.191Z,58.00
2018-09-28T19:41:41.869Z,57.70
2018-09-28T19:44:18.311Z,57.40
2018-09-28T19:46:53.613Z,57.20
2018-09-28T19:49:30.152Z,57.10
2018-09-28T19:52:05.782Z,55.00
2018-09-28T19:54:41.936Z,55.20
2018-09-28T19:57:16.441Z,53.90
2018-09-28T19:59:51.039Z,53.20
2018-09-28T20:02:27.270Z,53.40
2018-09-28T20:05:02.771Z,53.60
2018-09-28T20:07:37.267Z,53.20
2018-09-28T20:10:13.377Z,53.10
2018-09-28T20:12:48.728Z,52.90
2018-09-28T20:15:23.068Z,53.20
2018-09-28T20:17:58.591Z,53.00
2018-09-28T20:20:33.387Z,52.80
2018-09-28T20:23:09.231Z,52.70
2018-09-28T20:25:43.923Z,52.60
2018-09-28T20:28:19.311Z,52.20
2018-09-28T20:31:06.356Z,52.40
2018-09-28T20:33:40.789Z,52.20
2018-09-28T20:36:15.168Z,52.10
2018-09-28T20:38:50.044Z,51.80
2018-09-28T20:41:25.226Z,51.70
2018-09-28T20:43:59.576Z,51.70
2018-09-28T20:46:35.619Z,51.80
2018-09-28T20:49:10.847Z,51.90
2018-09-28T20:51:45.775Z,51.80
2018-09-28T20:54:20.833Z,51.90
2018-09-28T20:56:55.252Z,51.50
2018-09-28T20:59:30.675Z,51.50
2018-09-28T21:02:05.660Z,51.20
2018-09-28T21:04:40.906Z,51.50
2018-09-28T21:07:15.419Z,51.70
2018-09-28T21:09:51.004Z,51.60
2018-09-28T21:12:26.734Z,51.30
2018-09-28T21:15:01.266Z,51.30
2018-09-28T21:17:35.620Z,51.00
2018-09-28T21:20:10.695Z,51.10
2018-09-28T21:22:51.079Z,51.20
2018-09-28T21:25:25.591Z,51.20
2018-09-28T21:28:04.797Z,51.50
2018-09-28T21:30:39.300Z,51.20
2018-09-28T21:33:14.751Z,51.40
2018-09-28T21:35:49.301Z,51.30
2018-09-28T21:38:23.851Z,50.70
2018-09-28T21:40:58.883Z,50.90
2018-09-28T21:43:33.739Z,50.90
2018-09-28T21:46:08.652Z,50.80
2018-09-28T21:48:44.011Z,50.90
2018-09-28T21:51:19.050Z,50.50
2018-09-28T21:53:55.048Z,50.70
2018-09-28T21:59:10.787Z,50.20
2018-09-28T22:01:45.660Z,50.20
2018-09-28T22:04:20.152Z,50.20
2018-09-28T22:06:54.815Z,49.90
2018-09-28T22:09:29.292Z,49.90
2018-09-28T22:12:11.827Z,50.00
2018-09-28T22:14:46.313Z,50.40
2018-09-28T22:17:20.674Z,49.80
2018-09-28T22:19:56.006Z,49.70
2018-09-28T22:22:30.512Z,49.60
2018-09-28T22:25:05.483Z,49.30
2018-09-28T22:27:39.857Z,49.70
2018-09-28T22:30:14.933Z,49.10
2018-09-28T22:32:50.088Z,49.30
2018-09-28T22:35:24.400Z,49.40
2018-09-28T22:37:58.752Z,49.70
2018-09-28T22:40:33.760Z,49.60
2018-09-28T22:43:08.185Z,49.10
2018-09-28T22:45:43.187Z,49.30
2018-09-28T22:48:18.512Z,49.40
2018-09-28T22:50:54.272Z,49.40
2018-09-28T22:53:35.135Z,49.00
2018-09-28T22:56:09.553Z,49.00
2018-09-28T22:58:44.038Z,49.20
2018-09-28T23:01:19.000Z,49.40
2018-09-28T23:03:53.876Z,49.30
2018-09-28T23:06:28.315Z,49.50
2018-09-28T23:09:02.661Z,49.60
2018-09-28T23:11:38.062Z,49.70
2018-09-28T23:14:12.943Z,49.50
2018-09-28T23:16:48.099Z,49.30
2018-09-28T23:19:23.187Z,49.40
2018-09-28T23:21:57.659Z,49.60
2018-09-28T23:24:32.824Z,49.40
2018-09-28T23:27:07.253Z,49.60
2018-09-28T23:29:42.389Z,49.50
2018-09-28T23:32:17.585Z,49.20
2018-09-28T23:34:52.073Z,49.50
2018-09-28T23:37:27.163Z,49.50
2018-09-28T23:40:02.506Z,49.80
2018-09-28T23:42:36.908Z,49.50
2018-09-28T23:45:11.835Z,49.60
2018-09-28T23:47:46.439Z,49.50
2018-09-28T23:50:21.674Z,49.70
2018-09-28T23:52:56.660Z,49.80
2018-09-28T23:55:31.615Z,49.50
2018-09-28T23:58:06.858Z,49.50
